sensor_id;sensor_type;location;lat;lon;timestamp;temperature;humidity
27848;DHT22;15212;48.830;8.730;2023-08-17T00:01:02;18.70;99.90
27848;DHT22;15212;48.830;8.730;2023-08-17T00:03:30;18.70;99.90
27848;DHT22;15212;48.830;8.730;2023-08-17T00:05:59;18.60;99.90
27848;DHT22;15212;48.830;8.730;2023-08-17T00:08:27;18.60;99.90
27848;DHT22;15212;48.830;8.730;2023-08-17T00:10:56;18.60;99.90
27848;DHT22;15212;48.830;8.730;2023-08-17T00:13:24;18.60;99.90
27848;DHT22;15212;48.830;8.730;2023-08-17T00:15:52;18.60;99.90
27848;DHT22;15212;48.830;8.730;2023-08-17T00:18:21;18.60;99.90
27848;DHT22;15212;48.830;8.730;2023-08-17T00:20:49;18.60;99.90
27848;DHT22;15212;48.830;8.730;2023-08-17T00:23:17;18.60;99.90
27848;DHT22;15212;48.830;8.730;2023-08-17T00:25:48;18.60;99.90
27848;DHT22;15212;48.830;8.730;2023-08-17T00:28:16;18.60;99.90
27848;DHT22;15212;48.830;8.730;2023-08-17T00:30:45;18.60;99.90
27848;DHT22;15212;48.830;8.730;2023-08-17T00:33:13;18.60;99.90
27848;DHT22;15212;48.830;8.730;2023-08-17T00:35:42;18.60;99.90
27848;DHT22;15212;48.830;8.730;2023-08-17T00:38:12;18.50;99.90
27848;DHT22;15212;48.830;8.730;2023-08-17T00:40:40;18.50;99.90
27848;DHT22;15212;48.830;8.730;2023-08-17T00:43:10;18.50;99.90
27848;DHT22;15212;48.830;8.730;2023-08-17T00:45:38;18.50;99.90
27848;DHT22;15212;48.830;8.730;2023-08-17T00:48:08;18.40;99.90
27848;DHT22;15212;48.830;8.730;2023-08-17T00:50:37;18.50;99.90
27848;DHT22;15212;48.830;8.730;2023-08-17T00:53:06;18.50;99.90
27848;DHT22;15212;48.830;8.730;2023-08-17T00:55:36;18.40;99.90
27848;DHT22;15212;48.830;8.730;2023-08-17T00:58:05;18.40;99.90
27848;DHT22;15212;48.830;8.730;2023-08-17T01:00:33;18.30;99.90
27848;DHT22;15212;48.830;8.730;2023-08-17T01:03:02;18.30;99.90
27848;DHT22;15212;48.830;8.730;2023-08-17T01:05:32;18.30;99.90
27848;DHT22;15212;48.830;8.730;2023-08-17T01:08:00;18.20;99.90
27848;DHT22;15212;48.830;8.730;2023-08-17T01:11:20;18.10;99.90
27848;DHT22;15212;48.830;8.730;2023-08-17T01:13:25;18.00;99.90
27848;DHT22;15212;48.830;8.730;2023-08-17T01:15:56;18.00;99.90
27848;DHT22;15212;48.830;8.730;2023-08-17T01:18:32;18.00;99.90
27848;DHT22;15212;48.830;8.730;2023-08-17T01:21:05;17.90;99.90
27848;DHT22;15212;48.830;8.730;2023-08-17T01:23:34;17.80;99.90
27848;DHT22;15212;48.830;8.730;2023-08-17T01:26:03;17.80;99.90
27848;DHT22;15212;48.830;8.730;2023-08-17T01:28:31;17.80;99.90
27848;DHT22;15212;48.830;8.730;2023-08-17T01:31:08;17.80;99.90
27848;DHT22;15212;48.830;8.730;2023-08-17T01:33:39;17.80;99.90
27848;DHT22;15212;48.830;8.730;2023-08-17T01:36:20;17.70;99.90
27848;DHT22;15212;48.830;8.730;2023-08-17T01:38:52;17.70;99.90
27848;DHT22;15212;48.830;8.730;2023-08-17T01:41:23;17.70;99.90
27848;DHT22;15212;48.830;8.730;2023-08-17T01:43:52;17.70;99.90
27848;DHT22;15212;48.830;8.730;2023-08-17T01:46:21;17.60;99.90
27848;DHT22;15212;48.830;8.730;2023-08-17T01:48:50;17.60;99.90
27848;DHT22;15212;48.830;8.730;2023-08-17T01:51:19;17.60;99.90
27848;DHT22;15212;48.830;8.730;2023-08-17T01:53:48;17.60;99.90
27848;DHT22;15212;48.830;8.730;2023-08-17T01:56:16;17.60;99.90
27848;DHT22;15212;48.830;8.730;2023-08-17T01:58:45;17.70;99.90
27848;DHT22;15212;48.830;8.730;2023-08-17T02:01:13;17.70;99.90
27848;DHT22;15212;48.830;8.730;2023-08-17T02:03:42;17.70;99.90
27848;DHT22;15212;48.830;8.730;2023-08-17T02:06:10;17.70;99.90
27848;DHT22;15212;48.830;8.730;2023-08-17T02:08:39;17.70;99.90
27848;DHT22;15212;48.830;8.730;2023-08-17T02:11:08;17.70;99.90
27848;DHT22;15212;48.830;8.730;2023-08-17T02:13:37;17.60;99.90
27848;DHT22;15212;48.830;8.730;2023-08-17T02:16:05;17.60;99.90
27848;DHT22;15212;48.830;8.730;2023-08-17T02:18:33;17.60;99.90
27848;DHT22;15212;48.830;8.730;2023-08-17T02:21:02;17.70;99.90
27848;DHT22;15212;48.830;8.730;2023-08-17T02:23:30;17.70;99.90
27848;DHT22;15212;48.830;8.730;2023-08-17T02:25:58;17.80;99.90
27848;DHT22;15212;48.830;8.730;2023-08-17T02:28:27;17.90;99.90
27848;DHT22;15212;48.830;8.730;2023-08-17T02:30:56;17.90;99.90
27848;DHT22;15212;48.830;8.730;2023-08-17T02:33:25;17.90;99.90
27848;DHT22;15212;48.830;8.730;2023-08-17T02:35:54;18.00;99.90
27848;DHT22;15212;48.830;8.730;2023-08-17T02:38:22;18.10;99.90
27848;DHT22;15212;48.830;8.730;2023-08-17T02:40:50;18.10;99.90
27848;DHT22;15212;48.830;8.730;2023-08-17T02:43:19;18.10;99.90
27848;DHT22;15212;48.830;8.730;2023-08-17T02:45:47;18.10;99.90
27848;DHT22;15212;48.830;8.730;2023-08-17T02:48:16;18.20;99.90
27848;DHT22;15212;48.830;8.730;2023-08-17T02:50:44;18.20;99.90
27848;DHT22;15212;48.830;8.730;2023-08-17T02:53:13;18.30;99.90
27848;DHT22;15212;48.830;8.730;2023-08-17T02:55:41;18.30;99.90
27848;DHT22;15212;48.830;8.730;2023-08-17T02:58:10;18.30;99.90
27848;DHT22;15212;48.830;8.730;2023-08-17T03:00:38;18.40;99.90
27848;DHT22;15212;48.830;8.730;2023-08-17T03:03:06;18.40;99.90
27848;DHT22;15212;48.830;8.730;2023-08-17T03:05:35;18.40;99.90
27848;DHT22;15212;48.830;8.730;2023-08-17T03:08:03;18.40;99.90
27848;DHT22;15212;48.830;8.730;2023-08-17T03:10:33;18.40;99.90
27848;DHT22;15212;48.830;8.730;2023-08-17T03:13:02;18.40;99.90
27848;DHT22;15212;48.830;8.730;2023-08-17T03:15:30;18.40;99.90
27848;DHT22;15212;48.830;8.730;2023-08-17T03:17:59;18.40;99.90
27848;DHT22;15212;48.830;8.730;2023-08-17T03:20:27;18.50;99.90
27848;DHT22;15212;48.830;8.730;2023-08-17T03:22:55;18.40;99.90
27848;DHT22;15212;48.830;8.730;2023-08-17T03:25:24;18.50;99.90
27848;DHT22;15212;48.830;8.730;2023-08-17T03:27:54;18.50;99.90
27848;DHT22;15212;48.830;8.730;2023-08-17T03:30:22;18.50;99.90
27848;DHT22;15212;48.830;8.730;2023-08-17T03:32:50;18.50;99.90
27848;DHT22;15212;48.830;8.730;2023-08-17T03:35:19;18.40;99.90
27848;DHT22;15212;48.830;8.730;2023-08-17T03:37:47;18.40;99.90
27848;DHT22;15212;48.830;8.730;2023-08-17T03:40:16;18.40;99.90
27848;DHT22;15212;48.830;8.730;2023-08-17T03:42:44;18.40;99.90
27848;DHT22;15212;48.830;8.730;2023-08-17T03:45:12;18.40;99.90
27848;DHT22;15212;48.830;8.730;2023-08-17T03:47:41;18.40;99.90
27848;DHT22;15212;48.830;8.730;2023-08-17T03:50:09;18.40;99.90
27848;DHT22;15212;48.830;8.730;2023-08-17T03:52:38;18.40;99.90
27848;DHT22;15212;48.830;8.730;2023-08-17T03:55:06;18.40;99.90
27848;DHT22;15212;48.830;8.730;2023-08-17T03:57:35;18.30;99.90
27848;DHT22;15212;48.830;8.730;2023-08-17T04:00:04;18.30;99.90
27848;DHT22;15212;48.830;8.730;2023-08-17T04:02:33;18.30;99.90
27848;DHT22;15212;48.830;8.730;2023-08-17T04:05:01;18.30;99.90
27848;DHT22;15212;48.830;8.730;2023-08-17T04:07:30;18.20;99.90
27848;DHT22;15212;48.830;8.730;2023-08-17T04:09:58;18.20;99.90
27848;DHT22;15212;48.830;8.730;2023-08-17T04:12:27;18.10;99.90
27848;DHT22;15212;48.830;8.730;2023-08-17T04:14:55;18.10;99.90
27848;DHT22;15212;48.830;8.730;2023-08-17T04:17:23;18.00;99.90
27848;DHT22;15212;48.830;8.730;2023-08-17T04:19:52;18.00;99.90
27848;DHT22;15212;48.830;8.730;2023-08-17T04:22:20;18.00;99.90
27848;DHT22;15212;48.830;8.730;2023-08-17T04:24:49;17.90;99.90
27848;DHT22;15212;48.830;8.730;2023-08-17T04:27:17;17.90;99.90
27848;DHT22;15212;48.830;8.730;2023-08-17T04:29:46;17.90;99.90
27848;DHT22;15212;48.830;8.730;2023-08-17T04:32:15;17.90;99.90
27848;DHT22;15212;48.830;8.730;2023-08-17T04:34:45;17.90;99.90
27848;DHT22;15212;48.830;8.730;2023-08-17T04:37:15;17.90;99.90
27848;DHT22;15212;48.830;8.730;2023-08-17T04:39:43;17.90;99.90
27848;DHT22;15212;48.830;8.730;2023-08-17T04:42:14;17.90;99.90
27848;DHT22;15212;48.830;8.730;2023-08-17T04:44:42;17.80;99.90
27848;DHT22;15212;48.830;8.730;2023-08-17T04:47:10;17.80;99.90
27848;DHT22;15212;48.830;8.730;2023-08-17T04:49:39;17.80;99.90
27848;DHT22;15212;48.830;8.730;2023-08-17T04:52:07;17.80;99.90
27848;DHT22;15212;48.830;8.730;2023-08-17T04:54:36;17.90;99.90
27848;DHT22;15212;48.830;8.730;2023-08-17T04:57:04;17.80;99.90
27848;DHT22;15212;48.830;8.730;2023-08-17T04:59:32;17.80;99.90
27848;DHT22;15212;48.830;8.730;2023-08-17T05:02:01;17.90;99.90
27848;DHT22;15212;48.830;8.730;2023-08-17T05:04:30;17.90;99.90
27848;DHT22;15212;48.830;8.730;2023-08-17T05:06:58;17.90;99.90
27848;DHT22;15212;48.830;8.730;2023-08-17T05:09:27;17.90;99.90
27848;DHT22;15212;48.830;8.730;2023-08-17T05:11:57;17.90;99.90
27848;DHT22;15212;48.830;8.730;2023-08-17T05:14:25;17.90;99.90
27848;DHT22;15212;48.830;8.730;2023-08-17T05:16:53;17.90;99.90
27848;DHT22;15212;48.830;8.730;2023-08-17T05:19:22;17.90;99.90
27848;DHT22;15212;48.830;8.730;2023-08-17T05:21:50;17.90;99.90
27848;DHT22;15212;48.830;8.730;2023-08-17T05:24:20;18.00;99.90
27848;DHT22;15212;48.830;8.730;2023-08-17T05:26:48;18.00;99.90
27848;DHT22;15212;48.830;8.730;2023-08-17T05:29:17;18.10;99.90
27848;DHT22;15212;48.830;8.730;2023-08-17T05:31:45;18.10;99.90
27848;DHT22;15212;48.830;8.730;2023-08-17T05:34:13;18.10;99.90
27848;DHT22;15212;48.830;8.730;2023-08-17T05:36:42;18.10;99.90
27848;DHT22;15212;48.830;8.730;2023-08-17T05:39:10;18.20;99.90
27848;DHT22;15212;48.830;8.730;2023-08-17T05:41:38;18.20;99.90
27848;DHT22;15212;48.830;8.730;2023-08-17T05:44:07;18.20;99.90
27848;DHT22;15212;48.830;8.730;2023-08-17T05:46:36;18.30;99.90
27848;DHT22;15212;48.830;8.730;2023-08-17T05:49:04;18.40;99.90
27848;DHT22;15212;48.830;8.730;2023-08-17T05:51:33;18.50;99.90
27848;DHT22;15212;48.830;8.730;2023-08-17T05:54:01;18.60;99.90
27848;DHT22;15212;48.830;8.730;2023-08-17T05:56:30;18.70;99.90
27848;DHT22;15212;48.830;8.730;2023-08-17T05:58:58;18.70;99.90
27848;DHT22;15212;48.830;8.730;2023-08-17T06:01:27;18.80;99.90
27848;DHT22;15212;48.830;8.730;2023-08-17T06:03:55;18.80;99.90
27848;DHT22;15212;48.830;8.730;2023-08-17T06:06:23;18.90;99.90
27848;DHT22;15212;48.830;8.730;2023-08-17T06:08:52;19.00;99.90
27848;DHT22;15212;48.830;8.730;2023-08-17T06:11:21;19.20;99.90
27848;DHT22;15212;48.830;8.730;2023-08-17T06:13:50;19.30;99.90
27848;DHT22;15212;48.830;8.730;2023-08-17T06:16:18;19.40;99.90
27848;DHT22;15212;48.830;8.730;2023-08-17T06:18:47;19.70;99.90
27848;DHT22;15212;48.830;8.730;2023-08-17T06:21:16;20.00;99.90
27848;DHT22;15212;48.830;8.730;2023-08-17T06:23:44;20.50;99.90
27848;DHT22;15212;48.830;8.730;2023-08-17T06:26:13;21.30;99.90
27848;DHT22;15212;48.830;8.730;2023-08-17T06:28:41;22.10;99.90
27848;DHT22;15212;48.830;8.730;2023-08-17T06:31:10;23.00;99.90
27848;DHT22;15212;48.830;8.730;2023-08-17T06:33:38;24.30;99.90
27848;DHT22;15212;48.830;8.730;2023-08-17T06:36:06;25.20;99.90
27848;DHT22;15212;48.830;8.730;2023-08-17T06:38:35;26.20;99.90
27848;DHT22;15212;48.830;8.730;2023-08-17T06:41:03;26.90;99.90
27848;DHT22;15212;48.830;8.730;2023-08-17T06:43:31;27.70;99.90
27848;DHT22;15212;48.830;8.730;2023-08-17T06:46:00;28.40;99.90
27848;DHT22;15212;48.830;8.730;2023-08-17T06:48:28;28.90;99.90
27848;DHT22;15212;48.830;8.730;2023-08-17T06:50:58;29.30;99.90
27848;DHT22;15212;48.830;8.730;2023-08-17T06:53:26;29.60;99.90
27848;DHT22;15212;48.830;8.730;2023-08-17T06:55:54;29.90;99.90
27848;DHT22;15212;48.830;8.730;2023-08-17T06:58:23;29.70;99.90
27848;DHT22;15212;48.830;8.730;2023-08-17T07:00:51;29.70;99.90
27848;DHT22;15212;48.830;8.730;2023-08-17T07:03:20;29.20;99.90
27848;DHT22;15212;48.830;8.730;2023-08-17T07:05:49;28.80;99.90
27848;DHT22;15212;48.830;8.730;2023-08-17T07:08:17;28.30;99.90
27848;DHT22;15212;48.830;8.730;2023-08-17T07:10:45;27.80;99.90
27848;DHT22;15212;48.830;8.730;2023-08-17T07:13:14;27.40;99.90
27848;DHT22;15212;48.830;8.730;2023-08-17T07:15:42;26.80;99.90
27848;DHT22;15212;48.830;8.730;2023-08-17T07:18:10;26.40;99.90
27848;DHT22;15212;48.830;8.730;2023-08-17T07:20:39;25.90;99.90
27848;DHT22;15212;48.830;8.730;2023-08-17T07:23:07;25.60;99.90
27848;DHT22;15212;48.830;8.730;2023-08-17T07:25:35;25.30;99.90
27848;DHT22;15212;48.830;8.730;2023-08-17T07:28:04;25.00;99.90
27848;DHT22;15212;48.830;8.730;2023-08-17T07:30:33;24.90;99.90
27848;DHT22;15212;48.830;8.730;2023-08-17T07:33:01;24.70;99.90
27848;DHT22;15212;48.830;8.730;2023-08-17T07:35:29;24.60;99.90
27848;DHT22;15212;48.830;8.730;2023-08-17T07:37:58;24.50;99.90
27848;DHT22;15212;48.830;8.730;2023-08-17T07:40:27;24.40;99.90
27848;DHT22;15212;48.830;8.730;2023-08-17T07:42:55;24.40;99.90
27848;DHT22;15212;48.830;8.730;2023-08-17T07:45:23;24.40;99.90
27848;DHT22;15212;48.830;8.730;2023-08-17T07:47:52;24.40;99.90
27848;DHT22;15212;48.830;8.730;2023-08-17T07:50:20;24.40;99.90
27848;DHT22;15212;48.830;8.730;2023-08-17T07:52:48;24.40;99.90
27848;DHT22;15212;48.830;8.730;2023-08-17T07:55:17;24.40;99.90
27848;DHT22;15212;48.830;8.730;2023-08-17T07:57:45;24.40;99.90
27848;DHT22;15212;48.830;8.730;2023-08-17T08:00:14;24.30;99.90
27848;DHT22;15212;48.830;8.730;2023-08-17T08:02:43;24.20;99.90
27848;DHT22;15212;48.830;8.730;2023-08-17T08:05:11;24.20;99.90
27848;DHT22;15212;48.830;8.730;2023-08-17T08:07:40;24.30;99.90
27848;DHT22;15212;48.830;8.730;2023-08-17T08:10:09;24.40;99.90
27848;DHT22;15212;48.830;8.730;2023-08-17T08:12:37;24.50;99.90
27848;DHT22;15212;48.830;8.730;2023-08-17T08:15:06;24.50;99.90
27848;DHT22;15212;48.830;8.730;2023-08-17T08:17:35;24.60;99.90
27848;DHT22;15212;48.830;8.730;2023-08-17T08:20:05;24.80;99.90
27848;DHT22;15212;48.830;8.730;2023-08-17T08:22:34;24.90;99.90
27848;DHT22;15212;48.830;8.730;2023-08-17T08:25:02;25.00;99.90
27848;DHT22;15212;48.830;8.730;2023-08-17T08:27:31;25.10;99.90
27848;DHT22;15212;48.830;8.730;2023-08-17T08:29:59;25.20;99.90
27848;DHT22;15212;48.830;8.730;2023-08-17T08:32:27;25.30;99.90
27848;DHT22;15212;48.830;8.730;2023-08-17T08:34:56;25.40;99.90
27848;DHT22;15212;48.830;8.730;2023-08-17T08:37:24;25.60;99.90
27848;DHT22;15212;48.830;8.730;2023-08-17T08:39:54;25.60;99.90
27848;DHT22;15212;48.830;8.730;2023-08-17T08:42:23;25.90;99.90
27848;DHT22;15212;48.830;8.730;2023-08-17T08:44:53;25.90;99.90
27848;DHT22;15212;48.830;8.730;2023-08-17T08:47:21;25.90;99.90
27848;DHT22;15212;48.830;8.730;2023-08-17T08:49:58;26.00;99.90
27848;DHT22;15212;48.830;8.730;2023-08-17T08:55:21;26.00;99.90
27848;DHT22;15212;48.830;8.730;2023-08-17T08:57:52;26.00;99.90
27848;DHT22;15212;48.830;8.730;2023-08-17T09:00:22;26.20;99.90
27848;DHT22;15212;48.830;8.730;2023-08-17T09:02:53;26.20;99.90
27848;DHT22;15212;48.830;8.730;2023-08-17T09:05:22;26.20;99.90
27848;DHT22;15212;48.830;8.730;2023-08-17T09:07:50;26.30;99.90
27848;DHT22;15212;48.830;8.730;2023-08-17T09:10:20;26.30;99.90
27848;DHT22;15212;48.830;8.730;2023-08-17T09:12:48;26.30;99.90
27848;DHT22;15212;48.830;8.730;2023-08-17T09:15:17;26.40;99.90
27848;DHT22;15212;48.830;8.730;2023-08-17T09:17:46;26.40;99.90
27848;DHT22;15212;48.830;8.730;2023-08-17T09:20:37;26.30;99.90
27848;DHT22;15212;48.830;8.730;2023-08-17T09:23:16;26.30;99.90
27848;DHT22;15212;48.830;8.730;2023-08-17T09:25:49;26.20;99.90
27848;DHT22;15212;48.830;8.730;2023-08-17T09:28:22;26.30;99.90
27848;DHT22;15212;48.830;8.730;2023-08-17T09:30:56;26.30;99.90
27848;DHT22;15212;48.830;8.730;2023-08-17T09:33:29;26.20;99.90
27848;DHT22;15212;48.830;8.730;2023-08-17T09:35:59;26.30;99.90
27848;DHT22;15212;48.830;8.730;2023-08-17T09:38:28;26.30;99.90
27848;DHT22;15212;48.830;8.730;2023-08-17T09:40:58;26.20;99.90
27848;DHT22;15212;48.830;8.730;2023-08-17T09:43:27;26.20;99.90
27848;DHT22;15212;48.830;8.730;2023-08-17T09:45:57;26.30;99.90
27848;DHT22;15212;48.830;8.730;2023-08-17T09:48:27;26.40;99.90
27848;DHT22;15212;48.830;8.730;2023-08-17T09:50:57;26.40;99.90
27848;DHT22;15212;48.830;8.730;2023-08-17T09:53:26;26.40;99.90
27848;DHT22;15212;48.830;8.730;2023-08-17T09:55:54;26.40;99.90
27848;DHT22;15212;48.830;8.730;2023-08-17T09:58:23;26.30;99.90
27848;DHT22;15212;48.830;8.730;2023-08-17T10:00:52;26.20;99.90
27848;DHT22;15212;48.830;8.730;2023-08-17T10:03:21;26.20;99.90
27848;DHT22;15212;48.830;8.730;2023-08-17T10:05:53;26.20;99.90
27848;DHT22;15212;48.830;8.730;2023-08-17T10:08:25;26.10;99.90
27848;DHT22;15212;48.830;8.730;2023-08-17T10:10:56;26.20;99.90
27848;DHT22;15212;48.830;8.730;2023-08-17T10:13:42;26.20;99.90
27848;DHT22;15212;48.830;8.730;2023-08-17T10:16:23;26.10;99.90
27848;DHT22;15212;48.830;8.730;2023-08-17T10:19:21;25.90;99.90
27848;DHT22;15212;48.830;8.730;2023-08-17T10:22:03;25.70;99.90
27848;DHT22;15212;48.830;8.730;2023-08-17T10:24:32;25.70;99.90
27848;DHT22;15212;48.830;8.730;2023-08-17T10:27:07;25.90;99.90
27848;DHT22;15212;48.830;8.730;2023-08-17T10:29:36;26.10;99.90
27848;DHT22;15212;48.830;8.730;2023-08-17T10:32:06;26.20;99.90
27848;DHT22;15212;48.830;8.730;2023-08-17T10:34:35;26.40;99.90
27848;DHT22;15212;48.830;8.730;2023-08-17T10:37:05;26.70;99.90
27848;DHT22;15212;48.830;8.730;2023-08-17T10:39:34;26.80;99.90
27848;DHT22;15212;48.830;8.730;2023-08-17T10:42:04;26.80;99.90
27848;DHT22;15212;48.830;8.730;2023-08-17T10:44:40;26.90;99.90
27848;DHT22;15212;48.830;8.730;2023-08-17T10:47:32;26.90;99.90
27848;DHT22;15212;48.830;8.730;2023-08-17T10:50:06;26.80;99.90
27848;DHT22;15212;48.830;8.730;2023-08-17T10:52:37;26.70;99.90
27848;DHT22;15212;48.830;8.730;2023-08-17T10:55:09;26.50;99.90
27848;DHT22;15212;48.830;8.730;2023-08-17T10:57:42;26.50;99.90
27848;DHT22;15212;48.830;8.730;2023-08-17T11:00:21;26.60;99.90
27848;DHT22;15212;48.830;8.730;2023-08-17T11:03:00;26.80;99.90
27848;DHT22;15212;48.830;8.730;2023-08-17T11:08:38;27.00;99.90
27848;DHT22;15212;48.830;8.730;2023-08-17T11:11:05;27.10;99.90
27848;DHT22;15212;48.830;8.730;2023-08-17T11:13:39;27.00;99.90
27848;DHT22;15212;48.830;8.730;2023-08-17T11:16:14;27.00;99.90
27848;DHT22;15212;48.830;8.730;2023-08-17T11:18:43;26.80;99.90
27848;DHT22;15212;48.830;8.730;2023-08-17T11:21:12;26.90;99.90
27848;DHT22;15212;48.830;8.730;2023-08-17T11:23:42;26.90;99.90
27848;DHT22;15212;48.830;8.730;2023-08-17T11:26:10;26.90;99.90
27848;DHT22;15212;48.830;8.730;2023-08-17T11:28:39;26.80;99.90
27848;DHT22;15212;48.830;8.730;2023-08-17T11:31:09;26.60;99.90
27848;DHT22;15212;48.830;8.730;2023-08-17T11:33:39;26.50;99.90
27848;DHT22;15212;48.830;8.730;2023-08-17T11:36:08;26.30;99.90
27848;DHT22;15212;48.830;8.730;2023-08-17T11:38:40;26.00;99.90
27848;DHT22;15212;48.830;8.730;2023-08-17T11:41:10;25.70;99.90
27848;DHT22;15212;48.830;8.730;2023-08-17T11:43:40;25.30;99.90
27848;DHT22;15212;48.830;8.730;2023-08-17T11:46:09;24.90;99.90
27848;DHT22;15212;48.830;8.730;2023-08-17T11:48:37;24.60;99.90
27848;DHT22;15212;48.830;8.730;2023-08-17T11:51:06;24.40;99.90
27848;DHT22;15212;48.830;8.730;2023-08-17T11:53:36;24.00;99.90
27848;DHT22;15212;48.830;8.730;2023-08-17T11:56:06;23.80;99.90
27848;DHT22;15212;48.830;8.730;2023-08-17T11:58:46;23.60;99.90
27848;DHT22;15212;48.830;8.730;2023-08-17T12:01:14;23.40;99.90
27848;DHT22;15212;48.830;8.730;2023-08-17T12:03:43;23.20;99.90
27848;DHT22;15212;48.830;8.730;2023-08-17T12:06:15;23.10;99.90
27848;DHT22;15212;48.830;8.730;2023-08-17T12:08:45;22.90;99.90
27848;DHT22;15212;48.830;8.730;2023-08-17T12:11:16;22.70;99.90
27848;DHT22;15212;48.830;8.730;2023-08-17T12:13:49;22.60;99.90
27848;DHT22;15212;48.830;8.730;2023-08-17T12:16:19;22.50;99.90
27848;DHT22;15212;48.830;8.730;2023-08-17T12:18:50;22.40;99.90
27848;DHT22;15212;48.830;8.730;2023-08-17T12:21:23;22.20;99.90
27848;DHT22;15212;48.830;8.730;2023-08-17T12:23:51;22.10;99.90
27848;DHT22;15212;48.830;8.730;2023-08-17T12:26:21;22.00;99.90
27848;DHT22;15212;48.830;8.730;2023-08-17T12:28:50;22.00;99.90
27848;DHT22;15212;48.830;8.730;2023-08-17T12:31:22;21.90;99.90
27848;DHT22;15212;48.830;8.730;2023-08-17T12:33:51;21.80;99.90
27848;DHT22;15212;48.830;8.730;2023-08-17T12:36:20;21.60;99.90
27848;DHT22;15212;48.830;8.730;2023-08-17T12:38:48;21.60;99.90
27848;DHT22;15212;48.830;8.730;2023-08-17T12:41:17;21.50;99.90
27848;DHT22;15212;48.830;8.730;2023-08-17T12:43:46;21.50;99.90
27848;DHT22;15212;48.830;8.730;2023-08-17T12:46:15;21.40;99.90
27848;DHT22;15212;48.830;8.730;2023-08-17T12:48:44;21.40;99.90
27848;DHT22;15212;48.830;8.730;2023-08-17T12:51:14;21.40;99.90
27848;DHT22;15212;48.830;8.730;2023-08-17T12:53:43;21.30;99.90
27848;DHT22;15212;48.830;8.730;2023-08-17T12:56:11;21.40;99.90
27848;DHT22;15212;48.830;8.730;2023-08-17T12:58:40;21.40;99.90
27848;DHT22;15212;48.830;8.730;2023-08-17T13:01:08;21.50;99.90
27848;DHT22;15212;48.830;8.730;2023-08-17T13:03:37;21.50;99.90
27848;DHT22;15212;48.830;8.730;2023-08-17T13:06:05;21.60;99.90
27848;DHT22;15212;48.830;8.730;2023-08-17T13:08:34;21.70;99.90
27848;DHT22;15212;48.830;8.730;2023-08-17T13:11:03;21.90;99.90
27848;DHT22;15212;48.830;8.730;2023-08-17T13:13:31;22.00;99.90
27848;DHT22;15212;48.830;8.730;2023-08-17T13:15:59;22.00;99.90
27848;DHT22;15212;48.830;8.730;2023-08-17T13:18:28;22.10;99.90
27848;DHT22;15212;48.830;8.730;2023-08-17T13:20:56;22.10;99.90
27848;DHT22;15212;48.830;8.730;2023-08-17T13:23:25;22.20;99.90
27848;DHT22;15212;48.830;8.730;2023-08-17T13:25:53;22.20;99.90
27848;DHT22;15212;48.830;8.730;2023-08-17T13:28:21;22.10;99.90
27848;DHT22;15212;48.830;8.730;2023-08-17T13:30:50;22.10;99.90
27848;DHT22;15212;48.830;8.730;2023-08-17T13:33:18;22.10;99.90
27848;DHT22;15212;48.830;8.730;2023-08-17T13:35:47;22.10;99.90
27848;DHT22;15212;48.830;8.730;2023-08-17T13:38:15;22.10;99.90
27848;DHT22;15212;48.830;8.730;2023-08-17T13:40:44;22.10;99.90
27848;DHT22;15212;48.830;8.730;2023-08-17T13:43:12;22.10;99.90
27848;DHT22;15212;48.830;8.730;2023-08-17T13:45:40;22.10;99.90
27848;DHT22;15212;48.830;8.730;2023-08-17T13:48:09;22.20;99.90
27848;DHT22;15212;48.830;8.730;2023-08-17T13:50:38;22.30;99.90
27848;DHT22;15212;48.830;8.730;2023-08-17T13:53:07;22.40;99.90
27848;DHT22;15212;48.830;8.730;2023-08-17T13:55:35;22.40;99.90
27848;DHT22;15212;48.830;8.730;2023-08-17T13:58:04;22.50;99.90
27848;DHT22;15212;48.830;8.730;2023-08-17T14:00:32;22.60;99.90
27848;DHT22;15212;48.830;8.730;2023-08-17T14:03:00;22.60;99.90
27848;DHT22;15212;48.830;8.730;2023-08-17T14:05:29;22.70;99.90
27848;DHT22;15212;48.830;8.730;2023-08-17T14:07:58;22.70;99.90
27848;DHT22;15212;48.830;8.730;2023-08-17T14:10:26;22.80;99.90
27848;DHT22;15212;48.830;8.730;2023-08-17T14:12:54;22.80;99.90
27848;DHT22;15212;48.830;8.730;2023-08-17T14:15:23;22.90;99.90
27848;DHT22;15212;48.830;8.730;2023-08-17T14:17:51;23.00;99.90
27848;DHT22;15212;48.830;8.730;2023-08-17T14:20:19;23.10;99.90
27848;DHT22;15212;48.830;8.730;2023-08-17T14:22:48;23.20;99.90
27848;DHT22;15212;48.830;8.730;2023-08-17T14:25:16;23.40;99.90
27848;DHT22;15212;48.830;8.730;2023-08-17T14:27:45;23.60;99.90
27848;DHT22;15212;48.830;8.730;2023-08-17T14:30:13;23.90;99.90
27848;DHT22;15212;48.830;8.730;2023-08-17T14:32:42;24.10;99.90
27848;DHT22;15212;48.830;8.730;2023-08-17T14:35:10;24.30;99.90
27848;DHT22;15212;48.830;8.730;2023-08-17T14:37:38;24.50;99.90
27848;DHT22;15212;48.830;8.730;2023-08-17T14:40:08;24.70;99.90
27848;DHT22;15212;48.830;8.730;2023-08-17T14:42:37;24.90;99.90
27848;DHT22;15212;48.830;8.730;2023-08-17T14:45:06;25.10;99.90
27848;DHT22;15212;48.830;8.730;2023-08-17T14:47:35;25.30;99.90
27848;DHT22;15212;48.830;8.730;2023-08-17T14:50:04;25.50;99.90
27848;DHT22;15212;48.830;8.730;2023-08-17T14:52:32;25.70;99.90
27848;DHT22;15212;48.830;8.730;2023-08-17T14:55:01;25.90;99.90
27848;DHT22;15212;48.830;8.730;2023-08-17T14:57:31;26.00;99.90
27848;DHT22;15212;48.830;8.730;2023-08-17T14:59:59;26.20;99.90
27848;DHT22;15212;48.830;8.730;2023-08-17T15:02:27;26.30;99.90
27848;DHT22;15212;48.830;8.730;2023-08-17T15:04:56;26.40;99.90
27848;DHT22;15212;48.830;8.730;2023-08-17T15:07:24;26.50;99.90
27848;DHT22;15212;48.830;8.730;2023-08-17T15:09:52;26.50;99.90
27848;DHT22;15212;48.830;8.730;2023-08-17T15:12:21;26.50;99.90
27848;DHT22;15212;48.830;8.730;2023-08-17T15:14:49;26.50;99.90
27848;DHT22;15212;48.830;8.730;2023-08-17T15:17:18;26.50;99.90
27848;DHT22;15212;48.830;8.730;2023-08-17T15:19:46;26.50;99.90
27848;DHT22;15212;48.830;8.730;2023-08-17T15:22:14;26.50;99.90
27848;DHT22;15212;48.830;8.730;2023-08-17T15:24:43;26.50;99.90
27848;DHT22;15212;48.830;8.730;2023-08-17T15:27:13;26.50;99.90
27848;DHT22;15212;48.830;8.730;2023-08-17T15:29:41;26.30;99.90
27848;DHT22;15212;48.830;8.730;2023-08-17T15:32:10;26.20;99.90
27848;DHT22;15212;48.830;8.730;2023-08-17T15:34:38;25.90;99.90
27848;DHT22;15212;48.830;8.730;2023-08-17T15:37:07;25.90;99.90
27848;DHT22;15212;48.830;8.730;2023-08-17T15:39:36;25.70;99.90
27848;DHT22;15212;48.830;8.730;2023-08-17T15:42:04;25.70;99.90
27848;DHT22;15212;48.830;8.730;2023-08-17T15:44:33;25.70;99.90
27848;DHT22;15212;48.830;8.730;2023-08-17T15:47:01;25.70;99.90
27848;DHT22;15212;48.830;8.730;2023-08-17T15:49:29;25.60;99.90